Time;durP1;ratioP1;P1;durP2;ratioP2;P2;SDS_P1;SDS_P2;PMS_P1;PMS_P2;Temp;Humidity;BMP_temperature;BMP_pressure;BME280_temperature;BME280_humidity;BME280_pressure;Samples;Min_cycle;Max_cycle;Signal;HPM_P1;HPM_P2
2022/02/28 00:01:27;;;;;;;;;12.00;10.75;;;;;9.66;40.66;102319.69;4940270;28;45570;-66
2022/02/28 00:03:54;;;;;;;;;13.25;11.50;;;;;9.56;40.46;102305.50;4937990;28;45469;-66
2022/02/28 00:06:20;;;;;;;;;12.25;10.50;;;;;9.57;40.90;102309.94;4937545;28;45477;-65
2022/02/28 00:08:46;;;;;;;;;12.50;9.75;;;;;9.57;40.69;102305.50;4940103;28;45508;-66
2022/02/28 00:11:12;;;;;;;;;9.00;9.00;;;;;9.59;41.04;102325.03;4938578;28;45591;-66
2022/02/28 00:13:38;;;;;;;;;13.50;10.50;;;;;9.53;41.16;102319.72;4940097;28;45452;-65
2022/02/28 00:16:04;;;;;;;;;11.25;11.25;;;;;9.57;41.12;102325.94;4936618;28;45394;-66
2022/02/28 00:18:30;;;;;;;;;12.50;12.50;;;;;9.57;40.67;102332.16;4928976;28;45383;-66
2022/02/28 00:20:55;;;;;;;;;11.75;9.25;;;;;9.45;41.21;102318.84;4938292;28;45677;-66
2022/02/28 00:23:21;;;;;;;;;12.25;10.50;;;;;9.54;40.89;102341.91;4930361;28;46110;-66
2022/02/28 00:25:46;;;;;;;;;10.50;10.50;;;;;9.54;40.75;102341.91;4935184;28;46156;-66
2022/02/28 00:28:12;;;;;;;;;12.00;9.00;;;;;9.52;41.23;102349.03;4940761;28;46471;-65
2022/02/28 00:30:38;;;;;;;;;10.75;8.25;;;;;9.48;40.90;102344.63;4933830;28;45420;-65
2022/02/28 00:33:04;;;;;;;;;12.50;11.50;;;;;9.52;40.99;102351.72;4924914;28;45442;-66
2022/02/28 00:35:29;;;;;;;;;10.00;9.25;;;;;9.52;41.14;102354.38;4943240;28;45456;-66
2022/02/28 00:37:55;;;;;;;;;14.75;10.75;;;;;9.48;41.29;102342.84;4939017;28;45532;-66
2022/02/28 00:40:20;;;;;;;;;12.00;9.25;;;;;9.48;41.13;102353.50;4938549;28;45313;-65
2022/02/28 00:42:46;;;;;;;;;14.25;11.00;;;;;9.40;41.23;102334.84;4936593;28;45303;-66
2022/02/28 00:45:12;;;;;;;;;12.25;11.00;;;;;9.45;41.21;102343.75;4943110;28;45426;-65
2022/02/28 00:47:38;;;;;;;;;9.00;8.00;;;;;9.33;41.29;102332.22;4942339;28;45305;-66
2022/02/28 00:50:06;;;;;;;;;11.25;11.25;;;;;9.37;41.43;102342.88;4936422;28;45446;-66
2022/02/28 00:52:31;;;;;;;;;12.00;9.00;;;;;9.39;41.47;102354.41;4938104;28;45640;-65
2022/02/28 00:54:57;;;;;;;;;14.25;12.50;;;;;9.33;41.69;102338.41;4940123;28;45440;-66
2022/02/28 00:57:22;;;;;;;;;10.50;8.00;;;;;9.36;41.57;102350.88;4940405;28;45539;-66
2022/02/28 00:59:49;;;;;;;;;11.25;9.00;;;;;9.33;41.31;102350.88;4931856;28;46213;-65
2022/02/28 01:02:14;;;;;;;;;12.25;11.00;;;;;9.31;41.21;102350.88;4939120;28;45500;-66
2022/02/28 01:04:40;;;;;;;;;14.50;12.00;;;;;9.28;41.60;102354.41;4952233;28;45780;-65
2022/02/28 01:07:05;;;;;;;;;12.50;10.00;;;;;9.17;41.87;102348.22;4934821;28;45514;-66
2022/02/28 01:09:31;;;;;;;;;11.00;10.00;;;;;9.23;41.79;102360.66;4937144;28;46461;-66
2022/02/28 01:11:56;;;;;;;;;14.00;10.50;;;;;9.26;41.65;102369.53;4923701;28;45456;-66
2022/02/28 01:14:22;;;;;;;;;9.75;9.25;;;;;9.14;41.59;102342.91;4928434;28;45436;-66
2022/02/28 01:16:47;;;;;;;;;10.50;9.75;;;;;9.24;41.79;102363.31;4942971;28;45495;-66
2022/02/28 01:19:12;;;;;;;;;10.00;10.00;;;;;9.24;41.96;102373.97;4931267;28;45514;-66
2022/02/28 01:21:38;;;;;;;;;7.75;7.75;;;;;9.09;42.07;102342.00;4949374;28;46948;-66
2022/02/28 01:24:03;;;;;;;;;9.00;8.00;;;;;9.15;42.00;102351.78;4934237;28;45388;-66
2022/02/28 01:26:29;;;;;;;;;8.75;8.75;;;;;9.19;41.91;102361.56;4952738;28;45401;-66
2022/02/28 01:28:54;;;;;;;;;14.25;9.00;;;;;9.15;42.04;102352.66;4941936;28;45294;-66
2022/02/28 01:31:19;;;;;;;;;11.00;9.75;;;;;9.18;42.03;102365.97;4940690;28;45311;-66
2022/02/28 01:33:45;;;;;;;;;12.00;10.00;;;;;9.17;42.18;102368.63;4938678;28;45203;-65
2022/02/28 01:36:10;;;;;;;;;10.75;10.75;;;;;9.18;42.45;102362.44;4932707;28;45455;-66
2022/02/28 01:38:35;;;;;;;;;8.75;8.00;;;;;9.18;42.09;102365.97;4934320;28;45207;-65
2022/02/28 01:41:01;;;;;;;;;14.00;10.25;;;;;9.17;42.16;102369.53;4924910;28;45459;-66
2022/02/28 01:43:26;;;;;;;;;9.75;9.75;;;;;9.14;41.74;102357.97;4932674;28;46211;-65
2022/02/28 01:45:52;;;;;;;;;10.00;10.00;;;;;9.08;42.40;102356.22;4918180;28;45577;-66
2022/02/28 01:48:17;;;;;;;;;15.00;10.00;;;;;9.03;42.51;102350.00;4933168;28;45484;-66
2022/02/28 01:50:43;;;;;;;;;10.50;9.25;;;;;9.08;42.38;102361.53;4935974;28;45714;-66
2022/02/28 01:53:08;;;;;;;;;10.00;10.00;;;;;9.02;42.39;102350.88;4925599;28;45473;-66
2022/02/28 01:55:33;;;;;;;;;10.25;8.75;;;;;9.06;42.52;102358.00;4933086;28;45460;-66
2022/02/28 01:57:59;;;;;;;;;10.00;9.00;;;;;9.03;42.35;102358.00;4939385;28;45511;-66
2022/02/28 02:00:28;;;;;;;;;11.00;11.00;;;;;8.96;42.43;102349.13;4931559;28;45561;-66
2022/02/28 02:02:54;;;;;;;;;12.75;10.75;;;;;8.97;42.42;102347.31;4929524;28;45312;-65
2022/02/28 02:05:19;;;;;;;;;9.75;8.50;;;;;8.81;42.17;102328.69;4942149;28;45472;-65
2022/02/28 02:07:47;;;;;;;;;9.75;9.00;;;;;8.86;42.22;102339.34;4956749;28;45419;-65
2022/02/28 02:10:13;;;;;;;;;11.00;10.00;;;;;8.87;42.51;102344.69;4936344;28;45649;-65
2022/02/28 02:12:40;;;;;;;;;9.25;9.25;;;;;8.87;42.41;102339.34;4931551;28;45476;-65
2022/02/28 02:15:08;;;;;;;;;10.50;10.00;;;;;8.90;42.46;102346.44;4935485;28;45477;-65
2022/02/28 02:17:36;;;;;;;;;8.75;8.00;;;;;8.88;42.93;102342.91;4938037;28;45436;-65
2022/02/28 02:20:09;;;;;;;;;7.25;7.00;;;;;8.86;42.88;102342.88;4945918;28;47470;-66
2022/02/28 02:22:34;;;;;;;;;9.25;9.00;;;;;8.88;42.51;102343.78;4935063;28;45850;-66
2022/02/28 02:25:00;;;;;;;;;11.75;10.00;;;;;8.82;42.67;102337.56;4927282;28;47585;-65
2022/02/28 02:27:26;;;;;;;;;9.75;9.00;;;;;8.78;42.89;102331.34;4934151;28;45484;-65
2022/02/28 02:29:51;;;;;;;;;10.25;9.00;;;;;8.79;43.28;102340.25;4933760;28;48293;-66
2022/02/28 02:32:18;;;;;;;;;3.50;3.00;;;;;8.75;43.01;102335.78;4925360;28;45449;-65
2022/02/28 02:34:45;;;;;;;;;8.00;8.00;;;;;8.77;43.26;102336.66;4928384;28;45401;-65
2022/02/28 02:37:10;;;;;;;;;14.50;12.50;;;;;8.74;43.33;102342.91;4948168;28;45603;-65
2022/02/28 02:39:41;;;;;;;;;9.25;8.00;;;;;8.71;43.21;102338.44;4931845;28;45436;-66
2022/02/28 02:42:07;;;;;;;;;9.50;7.25;;;;;8.70;43.61;102346.44;4930235;28;45692;-65
2022/02/28 02:44:34;;;;;;;;;12.50;10.25;;;;;8.65;43.21;102343.78;4948229;28;45536;-66
2022/02/28 02:46:59;;;;;;;;;9.50;8.75;;;;;8.67;43.40;102342.00;4925310;28;45474;-66
2022/02/28 02:49:25;;;;;;;;;11.00;9.75;;;;;8.59;43.38;102338.44;4921475;28;46585;-66
2022/02/28 02:51:50;;;;;;;;;11.25;8.75;;;;;8.64;43.38;102346.44;4933551;28;46653;-66
2022/02/28 02:54:16;;;;;;;;;9.50;9.00;;;;;8.62;43.39;102337.53;4934549;28;45417;-66
2022/02/28 02:56:41;;;;;;;;;16.00;12.00;;;;;8.61;43.33;102341.97;4924336;28;46448;-66
2022/02/28 02:59:07;;;;;;;;;12.25;9.25;;;;;8.60;43.26;102334.88;4920016;28;46476;-65
2022/02/28 03:01:33;;;;;;;;;11.00;10.00;;;;;8.57;43.18;102337.56;4924984;28;45386;-66
2022/02/28 03:03:59;;;;;;;;;12.25;9.00;;;;;8.49;43.37;102321.56;4917177;28;45586;-65
2022/02/28 03:06:26;;;;;;;;;9.25;9.00;;;;;8.49;43.05;102328.66;4920348;28;45508;-65
2022/02/28 03:08:52;;;;;;;;;10.00;9.00;;;;;8.49;43.11;102329.56;4935254;28;47321;-66
2022/02/28 03:11:17;;;;;;;;;10.00;10.00;;;;;8.52;43.33;102332.22;4939827;28;45527;-66
2022/02/28 03:13:43;;;;;;;;;12.25;8.25;;;;;8.51;43.52;102329.56;4926863;28;45448;-66
2022/02/28 03:16:08;;;;;;;;;8.75;8.00;;;;;8.47;43.26;102330.41;4932891;28;45388;-65
2022/02/28 03:18:34;;;;;;;;;8.50;8.50;;;;;8.31;43.24;102311.72;4925355;28;46646;-66
2022/02/28 03:20:59;;;;;;;;;12.00;9.00;;;;;8.46;43.23;102332.19;4932856;28;45457;-65
2022/02/28 03:23:25;;;;;;;;;8.00;8.00;;;;;8.49;43.52;102334.88;4935008;28;45443;-65
2022/02/28 03:25:51;;;;;;;;;8.00;8.00;;;;;8.33;43.14;102309.06;4937744;28;45494;-65
2022/02/28 03:28:16;;;;;;;;;8.50;8.50;;;;;8.48;43.23;102324.22;4936130;28;45415;-66
2022/02/28 03:30:42;;;;;;;;;11.00;10.00;;;;;8.51;43.39;102340.19;4937765;28;46297;-66
2022/02/28 03:33:08;;;;;;;;;11.00;9.25;;;;;8.49;43.51;102336.66;4941410;28;45477;-66
2022/02/28 03:35:33;;;;;;;;;10.00;9.00;;;;;8.47;43.99;102334.00;4939789;28;45440;-66
2022/02/28 03:37:59;;;;;;;;;9.75;9.75;;;;;8.43;43.38;102340.16;4941413;28;45605;-65
2022/02/28 03:40:24;;;;;;;;;12.00;10.75;;;;;8.43;43.40;102333.97;4951793;28;46464;-66
2022/02/28 03:42:49;;;;;;;;;7.50;7.50;;;;;8.41;43.60;102333.94;4940603;28;45789;-65
2022/02/28 03:45:15;;;;;;;;;7.75;7.75;;;;;8.41;43.42;102333.06;4930698;28;45901;-65
2022/02/28 03:47:40;;;;;;;;;8.50;8.25;;;;;8.41;43.25;102333.94;4938572;28;45282;-66
2022/02/28 03:50:06;;;;;;;;;8.50;7.25;;;;;8.32;43.43;102313.53;4928031;28;45462;-66
2022/02/28 03:52:32;;;;;;;;;9.00;8.25;;;;;8.36;42.91;102314.41;4933862;28;45627;-66
2022/02/28 03:54:57;;;;;;;;;13.00;10.00;;;;;8.42;43.55;102319.75;4922355;28;45376;-66
2022/02/28 03:57:22;;;;;;;;;9.25;7.25;;;;;8.35;43.36;102317.94;4944846;28;47033;-66
2022/02/28 03:59:48;;;;;;;;;8.25;7.75;;;;;8.33;43.20;102314.41;4932573;28;45373;-66
2022/02/28 04:02:13;;;;;;;;;8.75;8.00;;;;;8.38;43.17;102325.94;4927777;28;45492;-66
2022/02/28 04:04:39;;;;;;;;;9.50;8.25;;;;;8.33;43.03;102319.72;4926200;28;45456;-66
2022/02/28 04:07:05;;;;;;;;;6.75;6.00;;;;;8.38;42.92;102325.94;4943119;28;48281;-66
2022/02/28 04:09:34;;;;;;;;;11.50;11.00;;;;;8.40;43.05;102323.28;4928213;28;45445;-66
2022/02/28 04:12:01;;;;;;;;;12.00;9.00;;;;;8.38;42.84;102325.06;4936597;28;45450;-66
2022/02/28 04:14:26;;;;;;;;;12.50;9.75;;;;;8.30;42.78;102314.38;4929646;28;45413;-66
2022/02/28 04:16:51;;;;;;;;;11.25;9.75;;;;;8.32;42.75;102332.16;4937309;28;46271;-65
2022/02/28 04:19:17;;;;;;;;;12.00;12.00;;;;;8.30;43.25;102333.94;4926374;28;45405;-65
2022/02/28 04:21:42;;;;;;;;;9.75;9.75;;;;;8.33;42.79;102338.34;4932174;28;45457;-66
2022/02/28 04:24:08;;;;;;;;;8.25;8.25;;;;;8.27;43.02;102335.66;4933931;28;45309;-66
2022/02/28 04:26:35;;;;;;;;;10.00;10.00;;;;;8.23;43.02;102337.44;4930163;28;45282;-66
2022/02/28 04:29:00;;;;;;;;;12.00;9.00;;;;;8.14;42.88;102329.44;4933448;28;46122;-66
2022/02/28 04:31:25;;;;;;;;;13.75;9.00;;;;;8.19;43.14;102335.66;4922885;28;45476;-65
2022/02/28 04:33:51;;;;;;;;;10.50;9.00;;;;;8.16;43.14;102338.31;4934300;28;45792;-66
2022/02/28 04:36:16;;;;;;;;;9.50;8.25;;;;;8.10;42.81;102331.19;4937689;28;45543;-66
2022/02/28 04:38:41;;;;;;;;;6.25;6.25;;;;;8.16;42.75;102349.81;4936755;28;45490;-66
2022/02/28 04:41:07;;;;;;;;;11.00;9.00;;;;;8.12;42.96;102333.88;4932779;28;45393;-66
2022/02/28 04:43:32;;;;;;;;;8.25;8.00;;;;;8.12;42.78;102337.41;4924381;28;46540;-65
2022/02/28 04:45:58;;;;;;;;;12.75;10.25;;;;;8.16;43.29;102340.97;4937491;28;45548;-66
2022/02/28 04:48:23;;;;;;;;;9.25;9.25;;;;;8.15;43.02;102345.41;4937404;28;45385;-66
2022/02/28 04:50:51;;;;;;;;;10.00;9.75;;;;;8.11;43.06;102340.94;4922042;28;45425;-66
2022/02/28 04:53:16;;;;;;;;;8.00;8.00;;;;;8.08;43.01;102334.72;4936214;28;45469;-65
2022/02/28 04:55:42;;;;;;;;;9.00;9.00;;;;;8.07;42.99;102335.59;4928173;28;47279;-65
2022/02/28 04:58:07;;;;;;;;;12.25;8.50;;;;;8.13;43.15;102343.59;4931300;28;45761;-66
2022/02/28 05:00:32;;;;;;;;;12.25;10.50;;;;;8.11;43.37;102340.06;4937140;28;45533;-65
2022/02/28 05:02:58;;;;;;;;;11.00;11.00;;;;;8.09;43.48;102341.84;4933434;28;45434;-66
2022/02/28 05:05:23;;;;;;;;;13.50;12.25;;;;;8.05;43.43;102338.28;4938975;28;45481;-65
2022/02/28 05:07:48;;;;;;;;;14.75;11.75;;;;;8.06;43.88;102349.78;4939338;28;45420;-66
2022/02/28 05:10:14;;;;;;;;;16.25;15.00;;;;;7.96;44.03;102340.88;4925339;28;45465;-66
2022/02/28 05:12:39;;;;;;;;;14.50;13.25;;;;;7.96;44.14;102349.75;4937514;28;45368;-66
2022/02/28 05:15:05;;;;;;;;;14.50;14.00;;;;;7.95;44.31;102353.31;4935678;28;45425;-66
2022/02/28 05:17:31;;;;;;;;;13.25;12.50;;;;;7.90;44.49;102352.41;4939567;28;45715;-66
2022/02/28 05:19:56;;;;;;;;;17.50;17.00;;;;;7.89;44.30;102366.56;4934830;28;45290;-65
2022/02/28 05:22:21;;;;;;;;;16.50;14.25;;;;;7.86;44.19;102366.53;4931653;28;45531;-65
2022/02/28 05:24:47;;;;;;;;;15.25;14.00;;;;;7.83;44.62;102370.97;4934396;28;46878;-65
2022/02/28 05:27:12;;;;;;;;;15.75;13.50;;;;;7.77;44.80;102364.75;4932386;28;45618;-66
2022/02/28 05:29:38;;;;;;;;;14.00;12.25;;;;;7.75;44.82;102363.84;4932590;28;45622;-66
2022/02/28 05:32:04;;;;;;;;;18.00;15.25;;;;;7.74;44.86;102370.03;4934406;28;45519;-66
2022/02/28 05:34:29;;;;;;;;;14.00;13.00;;;;;7.76;44.72;102376.25;4952927;28;47318;-66
2022/02/28 05:36:54;;;;;;;;;14.25;14.00;;;;;7.59;44.49;102348.69;4935608;28;45783;-66
2022/02/28 05:39:20;;;;;;;;;15.25;14.00;;;;;7.72;44.55;102374.47;4937909;28;45401;-65
2022/02/28 05:41:45;;;;;;;;;14.75;14.00;;;;;7.66;44.92;102365.56;4933857;28;45457;-66
2022/02/28 05:44:10;;;;;;;;;14.00;12.50;;;;;7.64;44.70;102360.22;4939769;28;45167;-66
2022/02/28 05:46:36;;;;;;;;;16.75;15.25;;;;;7.65;44.96;102371.75;4935536;28;45495;-66
2022/02/28 05:49:01;;;;;;;;;14.75;13.50;;;;;7.59;44.58;102364.63;4939446;28;45407;-66
2022/02/28 05:51:26;;;;;;;;;14.75;14.75;;;;;7.61;45.17;102370.84;4937047;28;45476;-66
2022/02/28 05:53:53;;;;;;;;;15.50;12.75;;;;;7.52;45.13;102362.84;4928627;28;48283;-66
2022/02/28 05:56:19;;;;;;;;;18.00;13.25;;;;;7.53;45.51;102370.78;4935145;28;46215;-66
2022/02/28 05:58:44;;;;;;;;;15.75;11.50;;;;;7.54;45.27;102382.31;4934714;28;45381;-65
2022/02/28 06:01:09;;;;;;;;;16.75;13.75;;;;;7.48;45.36;102379.63;4938464;28;45559;-66
2022/02/28 06:03:35;;;;;;;;;16.00;14.00;;;;;7.46;45.09;102395.53;4939658;28;46017;-66
2022/02/28 06:06:00;;;;;;;;;14.50;12.75;;;;;7.49;45.15;102392.91;4933247;28;45420;-66
2022/02/28 06:08:26;;;;;;;;;11.00;11.00;;;;;7.50;44.99;102394.72;4941417;28;45739;-66
2022/02/28 06:10:51;;;;;;;;;12.50;12.25;;;;;7.51;44.92;102408.88;4938723;28;45588;-65
2022/02/28 06:13:17;;;;;;;;;14.25;12.00;;;;;7.51;44.88;102411.53;4941958;28;46020;-66
2022/02/28 06:15:43;;;;;;;;;14.25;12.50;;;;;7.45;45.07;102396.44;4931693;28;45488;-66
2022/02/28 06:18:10;;;;;;;;;12.50;12.25;;;;;7.50;44.71;102412.41;4935686;28;45394;-66
2022/02/28 06:20:39;;;;;;;;;16.25;13.25;;;;;7.45;44.71;102396.44;4933173;28;45521;-65
2022/02/28 06:23:05;;;;;;;;;11.75;10.50;;;;;7.48;45.05;102403.53;4930748;28;45434;-66
2022/02/28 06:25:31;;;;;;;;;14.00;11.00;;;;;7.47;44.82;102405.31;4934030;28;45539;-66
2022/02/28 06:27:56;;;;;;;;;13.00;12.00;;;;;7.45;45.22;102406.16;4942202;28;45318;-66
2022/02/28 06:30:23;;;;;;;;;12.25;11.75;;;;;7.22;45.10;102367.03;4941616;28;45508;-66
2022/02/28 06:32:48;;;;;;;;;14.00;12.00;;;;;7.44;44.90;102405.28;4935399;28;45958;-66
2022/02/28 06:35:14;;;;;;;;;14.50;13.50;;;;;7.45;45.28;102406.16;4934132;28;45529;-66
2022/02/28 06:37:39;;;;;;;;;14.00;12.00;;;;;7.44;45.17;102407.94;4934343;28;45556;-66
2022/02/28 06:40:06;;;;;;;;;12.50;12.00;;;;;7.46;44.64;102414.16;4935678;28;45584;-66
2022/02/28 06:42:31;;;;;;;;;12.75;12.75;;;;;7.46;44.63;102411.47;4934032;28;45390;-65
2022/02/28 06:44:56;;;;;;;;;11.50;11.50;;;;;7.30;45.27;102391.91;4925388;28;45348;-66
2022/02/28 06:47:22;;;;;;;;;12.00;10.25;;;;;7.36;44.49;102407.00;4955222;28;45253;-66
2022/02/28 06:49:47;;;;;;;;;13.00;13.00;;;;;7.42;44.88;102410.59;4944252;28;45242;-66
2022/02/28 06:52:13;;;;;;;;;12.50;12.00;;;;;7.42;44.60;102407.91;4937770;28;45518;-66
2022/02/28 06:54:38;;;;;;;;;14.50;11.75;;;;;7.42;45.00;102413.25;4935640;28;45337;-66
2022/02/28 06:57:04;;;;;;;;;14.25;12.75;;;;;7.45;45.10;102419.44;4933514;28;45393;-66
2022/02/28 06:59:29;;;;;;;;;18.50;15.00;;;;;7.38;45.09;102406.13;4932015;28;45457;-66
2022/02/28 07:01:55;;;;;;;;;14.25;12.50;;;;;7.41;45.17;102424.72;4930671;28;45660;-66
2022/02/28 07:04:20;;;;;;;;;14.00;12.75;;;;;7.36;45.21;102415.84;4936221;28;45780;-66
2022/02/28 07:06:46;;;;;;;;;12.50;12.25;;;;;7.36;45.29;102423.81;4935813;28;45528;-66
2022/02/28 07:09:11;;;;;;;;;15.25;12.75;;;;;7.38;44.69;102432.72;4936550;28;45377;-66
2022/02/28 07:11:37;;;;;;;;;13.00;12.00;;;;;7.30;45.06;102418.47;4947045;28;46202;-66
2022/02/28 07:14:04;;;;;;;;;13.25;12.00;;;;;7.38;45.04;102432.72;4929291;28;45444;-66
2022/02/28 07:16:29;;;;;;;;;16.75;14.00;;;;;7.31;45.19;102416.69;4939946;28;45287;-66
2022/02/28 07:18:55;;;;;;;;;11.50;11.25;;;;;7.31;45.19;102409.59;4934814;28;45328;-66
2022/02/28 07:21:20;;;;;;;;;13.50;11.75;;;;;7.33;45.53;102417.59;4932747;28;45744;-66
2022/02/28 07:23:45;;;;;;;;;13.25;10.50;;;;;7.27;45.35;102396.28;4934414;28;45396;-66
2022/02/28 07:26:11;;;;;;;;;11.00;11.00;;;;;7.31;45.02;102406.06;4937185;28;45314;-66
2022/02/28 07:28:36;;;;;;;;;14.75;13.75;;;;;7.31;45.15;102424.66;4940908;28;45314;-66
2022/02/28 07:31:02;;;;;;;;;16.00;13.50;;;;;7.34;45.47;102420.25;4935255;28;45164;-66
2022/02/28 07:33:28;;;;;;;;;12.50;11.00;;;;;7.35;45.27;102422.03;4934543;28;45452;-66
2022/02/28 07:35:53;;;;;;;;;12.00;11.50;;;;;7.34;44.79;102417.59;4930783;28;45360;-66
2022/02/28 07:38:18;;;;;;;;;16.75;15.25;;;;;7.36;45.22;102426.47;4938191;28;45400;-66
2022/02/28 07:40:44;;;;;;;;;17.25;15.25;;;;;7.36;45.28;102417.63;4934971;28;46497;-66
2022/02/28 07:43:10;;;;;;;;;14.25;14.25;;;;;7.35;44.98;102430.03;4935353;28;45405;-66
2022/02/28 07:45:35;;;;;;;;;17.50;14.75;;;;;7.36;44.90;102434.44;4943787;28;45527;-66
2022/02/28 07:48:00;;;;;;;;;15.75;15.75;;;;;7.35;44.92;102438.00;4940524;28;45452;-66
2022/02/28 07:50:26;;;;;;;;;16.75;15.50;;;;;7.41;45.38;102448.66;4929346;28;46884;-66
2022/02/28 07:52:51;;;;;;;;;19.00;12.25;;;;;7.38;44.76;102437.09;4940849;28;45333;-66
2022/02/28 07:55:16;;;;;;;;;13.75;12.75;;;;;7.39;45.26;102439.78;4944903;28;45463;-66
2022/02/28 07:57:42;;;;;;;;;13.25;13.00;;;;;7.41;45.43;102459.28;4939558;28;45524;-66
2022/02/28 08:00:09;;;;;;;;;14.75;14.00;;;;;7.42;44.87;102455.75;4940604;28;46342;-66
2022/02/28 08:02:34;;;;;;;;;13.75;13.75;;;;;7.42;45.36;102457.53;4938811;28;45278;-66
2022/02/28 08:04:59;;;;;;;;;18.25;17.00;;;;;7.35;45.08;102453.00;4940447;28;45210;-66
2022/02/28 08:07:25;;;;;;;;;16.75;15.25;;;;;7.40;45.14;102461.91;4938723;28;45450;-66
2022/02/28 08:09:50;;;;;;;;;17.00;13.50;;;;;7.40;45.29;102449.53;4943884;28;45320;-66
2022/02/28 08:12:15;;;;;;;;;18.50;16.50;;;;;7.34;45.33;102448.59;4943731;28;45413;-66
2022/02/28 08:14:41;;;;;;;;;20.00;14.50;;;;;7.40;44.57;102461.91;4932360;28;45258;-66
2022/02/28 08:17:07;;;;;;;;;15.25;13.25;;;;;7.27;45.09;102438.78;4936614;28;45361;-66
2022/02/28 08:19:32;;;;;;;;;14.00;13.25;;;;;7.18;45.39;102424.56;4953546;28;45563;-66
2022/02/28 08:21:58;;;;;;;;;17.75;17.00;;;;;7.36;45.34;102446.84;4935338;28;45433;-66
2022/02/28 08:24:23;;;;;;;;;18.00;16.25;;;;;7.30;44.71;102423.78;4941923;28;45452;-66
2022/02/28 08:26:49;;;;;;;;;16.00;13.50;;;;;7.40;45.04;102441.56;4955892;28;45466;-66
2022/02/28 08:29:14;;;;;;;;;17.25;17.25;;;;;7.39;45.07;102434.47;4937206;28;46682;-66
2022/02/28 08:31:40;;;;;;;;;17.00;16.50;;;;;7.39;45.11;102434.47;4944694;28;45436;-67
2022/02/28 08:34:06;;;;;;;;;16.50;16.00;;;;;7.35;45.21;102429.09;4939447;28;45450;-66
2022/02/28 08:36:32;;;;;;;;;18.50;16.25;;;;;7.36;45.25;102439.75;4939919;28;46706;-66
2022/02/28 08:38:58;;;;;;;;;16.75;15.25;;;;;7.32;45.36;102418.47;4935906;28;46122;-66
2022/02/28 08:41:23;;;;;;;;;17.25;15.00;;;;;7.33;45.76;102417.59;4942565;28;45372;-66
2022/02/28 08:43:48;;;;;;;;;15.25;15.25;;;;;7.32;45.58;102419.38;4941641;28;45622;-66
2022/02/28 08:46:14;;;;;;;;;18.50;17.50;;;;;7.24;45.36;102413.09;4937240;28;46208;-66
2022/02/28 08:48:39;;;;;;;;;15.00;13.25;;;;;7.26;44.97;102431.69;4947050;28;48085;-67
2022/02/28 08:51:04;;;;;;;;;18.75;13.00;;;;;7.26;45.28;102437.00;4942356;28;45155;-66
2022/02/28 08:53:30;;;;;;;;;7.00;7.00;;;;;7.28;45.29;102425.50;4943044;28;45286;-67
2022/02/28 08:55:56;;;;;;;;;17.00;16.00;;;;;7.32;45.36;102437.06;4939972;28;45465;-66
2022/02/28 08:58:23;;;;;;;;;18.25;16.00;;;;;7.23;45.21;102420.19;4936232;28;45277;-67
2022/02/28 09:00:49;;;;;;;;;20.50;17.00;;;;;7.40;45.38;102441.56;4942780;28;45281;-66
2022/02/28 09:03:14;;;;;;;;;16.50;15.75;;;;;7.37;45.17;102424.72;4933806;28;45388;-66
2022/02/28 09:05:40;;;;;;;;;16.25;14.00;;;;;7.38;45.40;102418.50;4939833;28;45404;-68
2022/02/28 09:08:05;;;;;;;;;17.25;16.00;;;;;7.39;45.58;102415.88;4941822;28;46717;-67
2022/02/28 09:10:31;;;;;;;;;16.00;13.50;;;;;7.50;45.39;102431.91;4937403;28;45406;-67
2022/02/28 09:12:56;;;;;;;;;17.25;14.75;;;;;7.54;44.70;102422.19;4938035;28;45551;-68
2022/02/28 09:15:22;;;;;;;;;16.00;12.75;;;;;7.48;44.94;102419.47;4938380;28;45400;-67
2022/02/28 09:17:47;;;;;;;;;14.00;13.75;;;;;7.50;45.50;102421.28;4939840;28;45856;-67
2022/02/28 09:20:13;;;;;;;;;13.50;12.25;;;;;7.63;45.25;102437.31;4934551;28;45421;-67
2022/02/28 09:22:39;;;;;;;;;17.50;12.50;;;;;7.63;44.64;102424.88;4940846;28;45359;-67
2022/02/28 09:25:06;;;;;;;;;19.25;14.75;;;;;7.71;44.66;102433.81;4939646;28;45589;-67
2022/02/28 09:27:31;;;;;;;;;12.50;12.50;;;;;7.79;44.73;102445.38;4932536;28;45322;-67
2022/02/28 09:29:56;;;;;;;;;17.25;14.00;;;;;7.76;44.34;102429.41;4937851;28;45657;-66
2022/02/28 09:32:22;;;;;;;;;13.00;13.00;;;;;7.91;44.22;102447.22;4957655;28;46256;-69
2022/02/28 09:34:47;;;;;;;;;22.50;18.25;;;;;7.90;44.68;102461.41;4930579;28;45404;-66
2022/02/28 09:37:13;;;;;;;;;19.50;17.75;;;;;7.82;44.05;102438.28;4925334;28;46118;-66
2022/02/28 09:39:38;;;;;;;;;13.00;13.00;;;;;7.83;44.00;102434.78;4931920;28;45421;-70
2022/02/28 09:42:04;;;;;;;;;19.25;14.00;;;;;7.95;44.55;102445.47;4933417;28;45536;-68
2022/02/28 09:44:31;;;;;;;;;22.50;18.00;;;;;8.03;44.21;102451.72;4930693;28;45345;-71
2022/02/28 09:46:58;;;;;;;;;20.75;18.75;;;;;8.07;44.50;102452.63;4926170;28;45420;-69
2022/02/28 09:49:23;;;;;;;;;20.00;17.50;;;;;8.11;44.38;102457.97;4945305;28;45728;-68
2022/02/28 09:51:49;;;;;;;;;20.00;16.75;;;;;8.14;44.42;102462.44;4934601;28;45343;-68
2022/02/28 09:54:14;;;;;;;;;17.25;17.25;;;;;8.16;44.61;102455.34;4940461;28;45405;-69
2022/02/28 09:56:39;;;;;;;;;21.00;18.25;;;;;8.15;45.02;102448.22;4934580;28;45945;-67
2022/02/28 09:59:05;;;;;;;;;21.75;18.50;;;;;8.24;44.46;102445.63;4934170;28;45255;-69
2022/02/28 10:01:30;;;;;;;;;19.00;17.75;;;;;8.33;44.56;102455.41;4930552;28;45382;-68
2022/02/28 10:03:56;;;;;;;;;20.50;20.50;;;;;8.37;44.09;102443.00;4939350;28;45230;-69
2022/02/28 10:06:21;;;;;;;;;24.50;19.50;;;;;8.38;44.38;102445.69;4935171;28;46081;-68
2022/02/28 10:08:52;;;;;;;;;25.00;20.25;;;;;8.44;44.25;102445.75;4935580;28;45219;-69
2022/02/28 10:11:42;;;;;;;;;22.25;19.25;;;;;8.56;44.42;102441.34;4929612;28;45389;-69
2022/02/28 10:14:09;;;;;;;;;24.00;19.00;;;;;8.61;44.10;102436.94;4932187;28;45506;-69
2022/02/28 10:16:44;;;;;;;;;24.50;20.50;;;;;8.67;44.26;102435.19;4932215;28;45370;-69
2022/02/28 10:19:11;;;;;;;;;23.25;20.75;;;;;8.73;44.23;102436.97;4936233;28;45539;-69
2022/02/28 10:21:39;;;;;;;;;15.75;15.50;;;;;8.75;44.01;102437.84;4935816;28;45496;-69
2022/02/28 10:24:09;;;;;;;;;23.25;18.75;;;;;8.82;44.01;102437.00;4939790;28;45650;-69
2022/02/28 10:26:45;;;;;;;;;18.25;16.00;;;;;8.92;44.30;102439.66;4930923;28;45393;-69
2022/02/28 10:29:14;;;;;;;;;22.25;18.00;;;;;8.90;43.59;102447.63;4935092;28;45525;-69
2022/02/28 10:31:42;;;;;;;;;20.50;17.50;;;;;8.94;43.95;102453.84;4938303;28;45516;-69
2022/02/28 10:34:13;;;;;;;;;20.75;18.25;;;;;9.01;44.07;102451.22;4929947;28;45506;-68
2022/02/28 10:36:38;;;;;;;;;21.00;14.50;;;;;9.01;43.76;102451.22;4939658;28;45432;-69
2022/02/28 10:39:07;;;;;;;;;24.25;20.25;;;;;9.12;43.75;102461.91;4930448;28;45515;-65
2022/02/28 10:41:40;;;;;;;;;21.75;18.00;;;;;9.18;43.58;102466.34;4935037;28;45303;-69
2022/02/28 10:44:09;;;;;;;;;17.00;15.00;;;;;9.25;43.34;102461.03;4941135;28;45127;-68
2022/02/28 10:46:42;;;;;;;;;18.75;16.00;;;;;9.25;42.86;102458.38;4939663;28;47601;-69
2022/02/28 10:49:19;;;;;;;;;16.50;14.25;;;;;9.36;43.04;102461.00;4943063;28;45417;-69
2022/02/28 10:51:54;;;;;;;;;17.25;16.25;;;;;9.39;43.16;102452.16;4937910;28;45310;-69
2022/02/28 10:54:27;;;;;;;;;19.75;15.00;;;;;9.45;42.99;102445.03;4940381;28;45401;-69
2022/02/28 10:56:55;;;;;;;;;14.50;12.50;;;;;9.48;42.81;102438.81;4940405;28;45286;-70
2022/02/28 10:59:23;;;;;;;;;15.25;12.25;;;;;9.57;42.56;102446.81;4937191;28;45689;-68
2022/02/28 11:01:49;;;;;;;;;19.00;19.00;;;;;9.61;42.45;102443.22;4939006;28;45416;-66
2022/02/28 11:04:15;;;;;;;;;16.25;13.25;;;;;9.64;41.71;102451.22;4940119;28;45457;-66
2022/02/28 11:06:42;;;;;;;;;15.00;14.25;;;;;9.57;41.86;102436.16;4937860;28;46198;-71
2022/02/28 11:09:07;;;;;;;;;15.75;15.50;;;;;9.67;41.92;102461.00;4932609;28;45571;-69
2022/02/28 11:11:33;;;;;;;;;16.75;15.00;;;;;9.58;41.61;102439.69;4936411;28;45749;-69
2022/02/28 11:13:59;;;;;;;;;20.50;16.25;;;;;9.73;41.67;102455.66;4938196;28;45366;-69
2022/02/28 11:16:33;;;;;;;;;18.75;15.50;;;;;9.78;41.64;102451.19;4939498;28;45875;-69